sensor_id;sensor_type;location;lat;lon;timestamp;P1;durP1;ratioP1;P2;durP2;ratioP2
14209;SDS011;7188;56.070;12.698;2023-04-01T00:01:32;1.53;;;1.23;;
14209;SDS011;7188;56.070;12.698;2023-04-01T00:03:57;1.20;;;1.10;;
14209;SDS011;7188;56.070;12.698;2023-04-01T00:06:24;1.43;;;1.33;;
14209;SDS011;7188;56.070;12.698;2023-04-01T00:08:50;1.63;;;1.53;;
14209;SDS011;7188;56.070;12.698;2023-04-01T00:11:16;1.40;;;1.30;;
14209;SDS011;7188;56.070;12.698;2023-04-01T00:13:42;1.70;;;1.33;;
14209;SDS011;7188;56.070;12.698;2023-04-01T00:16:08;1.57;;;1.47;;
14209;SDS011;7188;56.070;12.698;2023-04-01T00:18:34;2.20;;;1.97;;
14209;SDS011;7188;56.070;12.698;2023-04-01T00:21:00;1.53;;;1.37;;
14209;SDS011;7188;56.070;12.698;2023-04-01T00:23:26;1.63;;;1.53;;
14209;SDS011;7188;56.070;12.698;2023-04-01T00:25:51;2.13;;;1.97;;
14209;SDS011;7188;56.070;12.698;2023-04-01T00:28:17;2.43;;;2.07;;
14209;SDS011;7188;56.070;12.698;2023-04-01T00:30:44;2.53;;;1.90;;
14209;SDS011;7188;56.070;12.698;2023-04-01T00:33:10;2.43;;;2.23;;
14209;SDS011;7188;56.070;12.698;2023-04-01T00:35:37;3.00;;;2.40;;
14209;SDS011;7188;56.070;12.698;2023-04-01T00:38:03;2.43;;;2.23;;
14209;SDS011;7188;56.070;12.698;2023-04-01T00:42:56;3.23;;;1.90;;
14209;SDS011;7188;56.070;12.698;2023-04-01T00:45:31;2.13;;;2.00;;
14209;SDS011;7188;56.070;12.698;2023-04-01T00:48:00;2.50;;;2.10;;
14209;SDS011;7188;56.070;12.698;2023-04-01T00:50:29;2.83;;;2.40;;
14209;SDS011;7188;56.070;12.698;2023-04-01T00:52:56;2.97;;;2.50;;
14209;SDS011;7188;56.070;12.698;2023-04-01T00:55:24;2.50;;;2.17;;
14209;SDS011;7188;56.070;12.698;2023-04-01T00:57:52;2.90;;;1.80;;
14209;SDS011;7188;56.070;12.698;2023-04-01T01:00:19;2.23;;;2.10;;
14209;SDS011;7188;56.070;12.698;2023-04-01T01:02:45;2.43;;;2.10;;
14209;SDS011;7188;56.070;12.698;2023-04-01T01:05:14;1.87;;;1.77;;
14209;SDS011;7188;56.070;12.698;2023-04-01T01:07:47;4.33;;;2.90;;
14209;SDS011;7188;56.070;12.698;2023-04-01T01:10:38;2.80;;;2.40;;
14209;SDS011;7188;56.070;12.698;2023-04-01T01:13:08;2.20;;;2.00;;
14209;SDS011;7188;56.070;12.698;2023-04-01T01:24:03;3.33;;;3.03;;
14209;SDS011;7188;56.070;12.698;2023-04-01T01:34:54;3.27;;;2.93;;
14209;SDS011;7188;56.070;12.698;2023-04-01T01:37:41;4.73;;;2.73;;
14209;SDS011;7188;56.070;12.698;2023-04-01T01:40:10;4.13;;;3.10;;
14209;SDS011;7188;56.070;12.698;2023-04-01T01:42:38;2.87;;;2.67;;
14209;SDS011;7188;56.070;12.698;2023-04-01T01:45:08;3.60;;;2.80;;
14209;SDS011;7188;56.070;12.698;2023-04-01T01:47:36;2.93;;;2.60;;
14209;SDS011;7188;56.070;12.698;2023-04-01T01:50:03;3.67;;;3.20;;
14209;SDS011;7188;56.070;12.698;2023-04-01T01:52:29;4.27;;;3.87;;
14209;SDS011;7188;56.070;12.698;2023-04-01T01:54:56;3.83;;;3.30;;
14209;SDS011;7188;56.070;12.698;2023-04-01T01:57:26;5.53;;;4.17;;
14209;SDS011;7188;56.070;12.698;2023-04-01T02:00:03;3.50;;;3.20;;
14209;SDS011;7188;56.070;12.698;2023-04-01T02:02:38;5.53;;;3.27;;
14209;SDS011;7188;56.070;12.698;2023-04-01T02:05:12;3.40;;;2.87;;
14209;SDS011;7188;56.070;12.698;2023-04-01T02:07:42;3.40;;;3.10;;
14209;SDS011;7188;56.070;12.698;2023-04-01T02:10:12;3.40;;;3.10;;
14209;SDS011;7188;56.070;12.698;2023-04-01T02:12:38;3.77;;;3.37;;
14209;SDS011;7188;56.070;12.698;2023-04-01T02:15:10;4.40;;;3.60;;
14209;SDS011;7188;56.070;12.698;2023-04-01T02:17:40;4.20;;;3.67;;
14209;SDS011;7188;56.070;12.698;2023-04-01T02:20:11;3.40;;;3.10;;
14209;SDS011;7188;56.070;12.698;2023-04-01T02:22:49;3.80;;;3.47;;
14209;SDS011;7188;56.070;12.698;2023-04-01T02:25:18;3.93;;;3.47;;
14209;SDS011;7188;56.070;12.698;2023-04-01T02:27:48;3.63;;;3.27;;
14209;SDS011;7188;56.070;12.698;2023-04-01T02:30:15;3.70;;;3.00;;
14209;SDS011;7188;56.070;12.698;2023-04-01T02:32:42;3.80;;;3.37;;
14209;SDS011;7188;56.070;12.698;2023-04-01T02:35:11;5.50;;;3.07;;
14209;SDS011;7188;56.070;12.698;2023-04-01T02:37:40;7.40;;;3.97;;
14209;SDS011;7188;56.070;12.698;2023-04-01T02:40:07;4.50;;;4.10;;
14209;SDS011;7188;56.070;12.698;2023-04-01T02:42:35;4.50;;;3.43;;
14209;SDS011;7188;56.070;12.698;2023-04-01T02:45:01;6.57;;;3.30;;
14209;SDS011;7188;56.070;12.698;2023-04-01T02:47:27;6.77;;;4.17;;
14209;SDS011;7188;56.070;12.698;2023-04-01T02:49:52;4.10;;;3.53;;
14209;SDS011;7188;56.070;12.698;2023-04-01T02:52:26;4.43;;;3.30;;
14209;SDS011;7188;56.070;12.698;2023-04-01T02:54:54;3.57;;;3.27;;
14209;SDS011;7188;56.070;12.698;2023-04-01T02:57:20;3.90;;;3.50;;
14209;SDS011;7188;56.070;12.698;2023-04-01T02:59:47;4.43;;;3.93;;
14209;SDS011;7188;56.070;12.698;2023-04-01T03:02:13;3.93;;;3.50;;
14209;SDS011;7188;56.070;12.698;2023-04-01T03:04:39;4.63;;;3.33;;
14209;SDS011;7188;56.070;12.698;2023-04-01T03:07:14;4.50;;;3.23;;
14209;SDS011;7188;56.070;12.698;2023-04-01T03:09:39;3.97;;;3.57;;
14209;SDS011;7188;56.070;12.698;2023-04-01T03:12:21;6.33;;;3.90;;
14209;SDS011;7188;56.070;12.698;2023-04-01T03:14:46;3.60;;;3.30;;
14209;SDS011;7188;56.070;12.698;2023-04-01T03:17:12;5.13;;;3.30;;
14209;SDS011;7188;56.070;12.698;2023-04-01T03:19:38;6.20;;;3.50;;
14209;SDS011;7188;56.070;12.698;2023-04-01T03:22:03;4.10;;;3.50;;
14209;SDS011;7188;56.070;12.698;2023-04-01T03:24:29;4.70;;;3.43;;
14209;SDS011;7188;56.070;12.698;2023-04-01T03:26:55;4.57;;;3.33;;
14209;SDS011;7188;56.070;12.698;2023-04-01T03:29:20;4.37;;;3.20;;
14209;SDS011;7188;56.070;12.698;2023-04-01T03:31:46;4.93;;;3.80;;
14209;SDS011;7188;56.070;12.698;2023-04-01T03:34:11;5.10;;;3.60;;
14209;SDS011;7188;56.070;12.698;2023-04-01T03:36:37;5.20;;;3.07;;
14209;SDS011;7188;56.070;12.698;2023-04-01T03:39:03;4.67;;;3.87;;
14209;SDS011;7188;56.070;12.698;2023-04-01T03:41:28;4.03;;;3.30;;
14209;SDS011;7188;56.070;12.698;2023-04-01T03:43:55;6.40;;;3.47;;
14209;SDS011;7188;56.070;12.698;2023-04-01T03:46:21;4.00;;;3.50;;
14209;SDS011;7188;56.070;12.698;2023-04-01T03:48:47;3.77;;;3.37;;
14209;SDS011;7188;56.070;12.698;2023-04-01T03:51:27;7.00;;;3.27;;
14209;SDS011;7188;56.070;12.698;2023-04-01T03:53:53;5.83;;;3.63;;
14209;SDS011;7188;56.070;12.698;2023-04-01T03:56:19;7.27;;;3.83;;
14209;SDS011;7188;56.070;12.698;2023-04-01T03:58:44;4.17;;;3.77;;
14209;SDS011;7188;56.070;12.698;2023-04-01T04:01:14;3.60;;;3.30;;
14209;SDS011;7188;56.070;12.698;2023-04-01T04:03:41;5.13;;;3.40;;
14209;SDS011;7188;56.070;12.698;2023-04-01T04:06:10;8.47;;;3.70;;
14209;SDS011;7188;56.070;12.698;2023-04-01T04:08:36;4.97;;;3.70;;
14209;SDS011;7188;56.070;12.698;2023-04-01T04:11:02;3.50;;;3.20;;
14209;SDS011;7188;56.070;12.698;2023-04-01T04:13:27;3.50;;;3.20;;
14209;SDS011;7188;56.070;12.698;2023-04-01T04:15:53;4.90;;;3.60;;
14209;SDS011;7188;56.070;12.698;2023-04-01T04:18:19;4.50;;;3.40;;
14209;SDS011;7188;56.070;12.698;2023-04-01T04:20:45;3.60;;;2.67;;
14209;SDS011;7188;56.070;12.698;2023-04-01T04:23:13;5.23;;;3.20;;
14209;SDS011;7188;56.070;12.698;2023-04-01T04:25:39;5.67;;;3.13;;
14209;SDS011;7188;56.070;12.698;2023-04-01T04:28:04;4.47;;;3.00;;
14209;SDS011;7188;56.070;12.698;2023-04-01T04:30:30;4.53;;;2.70;;
14209;SDS011;7188;56.070;12.698;2023-04-01T04:32:56;4.17;;;2.93;;
14209;SDS011;7188;56.070;12.698;2023-04-01T04:35:21;2.80;;;2.60;;
14209;SDS011;7188;56.070;12.698;2023-04-01T04:37:47;3.77;;;2.70;;
14209;SDS011;7188;56.070;12.698;2023-04-01T04:40:12;4.90;;;3.23;;
14209;SDS011;7188;56.070;12.698;2023-04-01T04:42:38;4.47;;;3.10;;
14209;SDS011;7188;56.070;12.698;2023-04-01T04:45:04;5.00;;;3.00;;
14209;SDS011;7188;56.070;12.698;2023-04-01T04:47:30;4.70;;;2.43;;
14209;SDS011;7188;56.070;12.698;2023-04-01T04:49:56;2.57;;;2.37;;
14209;SDS011;7188;56.070;12.698;2023-04-01T04:52:22;2.53;;;2.00;;
14209;SDS011;7188;56.070;12.698;2023-04-01T04:54:47;2.47;;;2.17;;
14209;SDS011;7188;56.070;12.698;2023-04-01T04:57:13;2.37;;;2.17;;
14209;SDS011;7188;56.070;12.698;2023-04-01T04:59:38;3.90;;;1.70;;
14209;SDS011;7188;56.070;12.698;2023-04-01T05:02:04;3.33;;;2.07;;
14209;SDS011;7188;56.070;12.698;2023-04-01T05:04:33;3.70;;;2.63;;
14209;SDS011;7188;56.070;12.698;2023-04-01T05:07:00;2.77;;;2.30;;
14209;SDS011;7188;56.070;12.698;2023-04-01T05:09:26;2.03;;;1.60;;
14209;SDS011;7188;56.070;12.698;2023-04-01T05:11:51;3.37;;;1.80;;
14209;SDS011;7188;56.070;12.698;2023-04-01T05:14:17;2.67;;;2.03;;
14209;SDS011;7188;56.070;12.698;2023-04-01T05:16:43;1.77;;;1.67;;
14209;SDS011;7188;56.070;12.698;2023-04-01T05:19:08;4.27;;;2.13;;
14209;SDS011;7188;56.070;12.698;2023-04-01T05:21:34;1.93;;;1.73;;
14209;SDS011;7188;56.070;12.698;2023-04-01T05:24:00;3.40;;;1.33;;
14209;SDS011;7188;56.070;12.698;2023-04-01T05:26:25;2.97;;;1.50;;
14209;SDS011;7188;56.070;12.698;2023-04-01T05:28:51;2.03;;;1.40;;
14209;SDS011;7188;56.070;12.698;2023-04-01T05:31:16;3.13;;;1.70;;
14209;SDS011;7188;56.070;12.698;2023-04-01T05:33:42;3.30;;;1.90;;
14209;SDS011;7188;56.070;12.698;2023-04-01T05:36:11;1.80;;;1.40;;
14209;SDS011;7188;56.070;12.698;2023-04-01T05:41:34;2.27;;;1.80;;
14209;SDS011;7188;56.070;12.698;2023-04-01T05:44:15;2.63;;;1.73;;
14209;SDS011;7188;56.070;12.698;2023-04-01T05:46:43;3.20;;;1.30;;
14209;SDS011;7188;56.070;12.698;2023-04-01T05:49:09;2.90;;;1.93;;
14209;SDS011;7188;56.070;12.698;2023-04-01T05:51:35;1.80;;;1.20;;
14209;SDS011;7188;56.070;12.698;2023-04-01T05:54:01;3.87;;;1.47;;
14209;SDS011;7188;56.070;12.698;2023-04-01T05:56:26;2.40;;;1.63;;
14209;SDS011;7188;56.070;12.698;2023-04-01T05:58:53;3.17;;;1.00;;
14209;SDS011;7188;56.070;12.698;2023-04-01T06:01:19;4.00;;;1.50;;
14209;SDS011;7188;56.070;12.698;2023-04-01T06:03:45;1.90;;;1.17;;
14209;SDS011;7188;56.070;12.698;2023-04-01T06:06:14;1.63;;;1.00;;
14209;SDS011;7188;56.070;12.698;2023-04-01T06:08:44;2.50;;;1.00;;
14209;SDS011;7188;56.070;12.698;2023-04-01T06:11:13;1.47;;;1.37;;
14209;SDS011;7188;56.070;12.698;2023-04-01T06:43:44;2.00;;;1.27;;
14209;SDS011;7188;56.070;12.698;2023-04-01T06:49:11;1.27;;;0.97;;
14209;SDS011;7188;56.070;12.698;2023-04-01T06:54:36;1.33;;;0.97;;
14209;SDS011;7188;56.070;12.698;2023-04-01T06:57:08;2.47;;;0.77;;
14209;SDS011;7188;56.070;12.698;2023-04-01T06:59:54;2.30;;;0.83;;
14209;SDS011;7188;56.070;12.698;2023-04-01T07:02:43;3.67;;;0.80;;
14209;SDS011;7188;56.070;12.698;2023-04-01T07:05:15;0.73;;;0.70;;
14209;SDS011;7188;56.070;12.698;2023-04-01T07:10:35;1.70;;;0.70;;
14209;SDS011;7188;56.070;12.698;2023-04-01T07:13:24;1.77;;;0.73;;
14209;SDS011;7188;56.070;12.698;2023-04-01T07:15:58;1.90;;;0.90;;
14209;SDS011;7188;56.070;12.698;2023-04-01T07:21:39;1.80;;;1.23;;
14209;SDS011;7188;56.070;12.698;2023-04-01T07:24:33;2.00;;;0.80;;
14209;SDS011;7188;56.070;12.698;2023-04-01T07:27:01;2.43;;;0.60;;
14209;SDS011;7188;56.070;12.698;2023-04-01T07:29:27;3.70;;;0.83;;
14209;SDS011;7188;56.070;12.698;2023-04-01T07:46:27;2.43;;;0.60;;
14209;SDS011;7188;56.070;12.698;2023-04-01T07:48:51;1.20;;;1.03;;
14209;SDS011;7188;56.070;12.698;2023-04-01T07:51:29;1.03;;;0.60;;
14209;SDS011;7188;56.070;12.698;2023-04-01T07:54:08;1.33;;;0.73;;
14209;SDS011;7188;56.070;12.698;2023-04-01T07:56:51;4.30;;;1.13;;
14209;SDS011;7188;56.070;12.698;2023-04-01T08:02:28;1.40;;;0.90;;
14209;SDS011;7188;56.070;12.698;2023-04-01T08:21:28;2.93;;;0.60;;
14209;SDS011;7188;56.070;12.698;2023-04-01T08:24:25;4.40;;;0.60;;
14209;SDS011;7188;56.070;12.698;2023-04-01T08:26:59;1.93;;;0.70;;
14209;SDS011;7188;56.070;12.698;2023-04-01T08:32:28;0.67;;;0.67;;
14209;SDS011;7188;56.070;12.698;2023-04-01T08:35:24;1.40;;;0.70;;
14209;SDS011;7188;56.070;12.698;2023-04-01T08:37:56;0.60;;;0.50;;
14209;SDS011;7188;56.070;12.698;2023-04-01T08:43:22;2.90;;;0.83;;
14209;SDS011;7188;56.070;12.698;2023-04-01T08:52:16;2.93;;;0.57;;
14209;SDS011;7188;56.070;12.698;2023-04-01T09:00:43;1.17;;;0.30;;
14209;SDS011;7188;56.070;12.698;2023-04-01T09:04:03;0.50;;;0.50;;
14209;SDS011;7188;56.070;12.698;2023-04-01T09:15:17;0.90;;;0.40;;
14209;SDS011;7188;56.070;12.698;2023-04-01T09:23:36;2.83;;;0.57;;
14209;SDS011;7188;56.070;12.698;2023-04-01T09:29:41;1.13;;;0.33;;
14209;SDS011;7188;56.070;12.698;2023-04-01T09:32:57;0.30;;;0.30;;
14209;SDS011;7188;56.070;12.698;2023-04-01T09:35:45;0.50;;;0.30;;
14209;SDS011;7188;56.070;12.698;2023-04-01T09:43:47;0.40;;;0.40;;
14209;SDS011;7188;56.070;12.698;2023-04-01T09:52:31;1.80;;;0.50;;
14209;SDS011;7188;56.070;12.698;2023-04-01T10:37:15;1.17;;;0.60;;
14209;SDS011;7188;56.070;12.698;2023-04-01T11:06:28;0.30;;;0.30;;
14209;SDS011;7188;56.070;12.698;2023-04-01T11:12:09;0.30;;;0.30;;
14209;SDS011;7188;56.070;12.698;2023-04-01T11:17:57;0.40;;;0.30;;
14209;SDS011;7188;56.070;12.698;2023-04-01T11:23:49;0.30;;;0.30;;
14209;SDS011;7188;56.070;12.698;2023-04-01T11:37:18;0.37;;;0.30;;
14209;SDS011;7188;56.070;12.698;2023-04-01T11:54:51;1.23;;;0.30;;
14209;SDS011;7188;56.070;12.698;2023-04-01T12:15:00;0.20;;;0.20;;
14209;SDS011;7188;56.070;12.698;2023-04-01T12:18:04;0.60;;;0.30;;
14209;SDS011;7188;56.070;12.698;2023-04-01T12:23:40;0.53;;;0.40;;
14209;SDS011;7188;56.070;12.698;2023-04-01T12:26:26;0.40;;;0.20;;
14209;SDS011;7188;56.070;12.698;2023-04-01T12:32:23;0.70;;;0.37;;
14209;SDS011;7188;56.070;12.698;2023-04-01T12:48:59;1.47;;;0.40;;
14209;SDS011;7188;56.070;12.698;2023-04-01T12:57:22;1.20;;;0.40;;
14209;SDS011;7188;56.070;12.698;2023-04-01T13:05:52;1.37;;;0.50;;
14209;SDS011;7188;56.070;12.698;2023-04-01T13:08:49;0.30;;;0.30;;
14209;SDS011;7188;56.070;12.698;2023-04-01T13:19:09;0.43;;;0.40;;
14209;SDS011;7188;56.070;12.698;2023-04-01T13:21:53;1.33;;;0.30;;
14209;SDS011;7188;56.070;12.698;2023-04-01T13:32:47;1.53;;;0.40;;
14209;SDS011;7188;56.070;12.698;2023-04-01T14:05:32;0.40;;;0.30;;
14209;SDS011;7188;56.070;12.698;2023-04-01T14:10:51;2.93;;;0.60;;
14209;SDS011;7188;56.070;12.698;2023-04-01T14:13:52;0.50;;;0.40;;
14209;SDS011;7188;56.070;12.698;2023-04-01T14:49:37;1.20;;;0.40;;
14209;SDS011;7188;56.070;12.698;2023-04-01T14:52:11;1.90;;;0.40;;
14209;SDS011;7188;56.070;12.698;2023-04-01T14:54:48;0.93;;;0.60;;
14209;SDS011;7188;56.070;12.698;2023-04-01T14:59:53;2.83;;;0.40;;
14209;SDS011;7188;56.070;12.698;2023-04-01T15:16:41;1.20;;;0.50;;
14209;SDS011;7188;56.070;12.698;2023-04-01T15:19:16;2.07;;;0.67;;
14209;SDS011;7188;56.070;12.698;2023-04-01T15:27:19;0.40;;;0.40;;
14209;SDS011;7188;56.070;12.698;2023-04-01T15:30:14;0.70;;;0.70;;
14209;SDS011;7188;56.070;12.698;2023-04-01T15:32:52;1.53;;;1.43;;
14209;SDS011;7188;56.070;12.698;2023-04-01T15:41:22;1.00;;;0.40;;
14209;SDS011;7188;56.070;12.698;2023-04-01T15:43:46;0.63;;;0.47;;
14209;SDS011;7188;56.070;12.698;2023-04-01T16:00:08;1.37;;;0.40;;
14209;SDS011;7188;56.070;12.698;2023-04-01T16:06:00;0.70;;;0.50;;
14209;SDS011;7188;56.070;12.698;2023-04-01T16:11:49;0.50;;;0.50;;
14209;SDS011;7188;56.070;12.698;2023-04-01T16:20:02;1.87;;;0.50;;
14209;SDS011;7188;56.070;12.698;2023-04-01T16:22:49;0.40;;;0.40;;
14209;SDS011;7188;56.070;12.698;2023-04-01T16:28:38;0.80;;;0.80;;
14209;SDS011;7188;56.070;12.698;2023-04-01T16:33:52;0.90;;;0.57;;
14209;SDS011;7188;56.070;12.698;2023-04-01T16:42:52;0.93;;;0.50;;
14209;SDS011;7188;56.070;12.698;2023-04-01T16:48:12;0.60;;;0.60;;
14209;SDS011;7188;56.070;12.698;2023-04-01T16:50:48;1.60;;;0.57;;
14209;SDS011;7188;56.070;12.698;2023-04-01T16:53:21;0.90;;;0.60;;
14209;SDS011;7188;56.070;12.698;2023-04-01T16:58:26;1.90;;;0.50;;
14209;SDS011;7188;56.070;12.698;2023-04-01T17:01:06;1.30;;;0.60;;
14209;SDS011;7188;56.070;12.698;2023-04-01T17:03:43;2.77;;;0.50;;
14209;SDS011;7188;56.070;12.698;2023-04-01T17:11:18;0.50;;;0.50;;
14209;SDS011;7188;56.070;12.698;2023-04-01T17:16:23;0.40;;;0.40;;
14209;SDS011;7188;56.070;12.698;2023-04-01T17:24:31;0.47;;;0.47;;
14209;SDS011;7188;56.070;12.698;2023-04-01T17:27:33;0.43;;;0.30;;
14209;SDS011;7188;56.070;12.698;2023-04-01T17:35:43;0.67;;;0.40;;
14209;SDS011;7188;56.070;12.698;2023-04-01T17:47:02;1.00;;;0.33;;
14209;SDS011;7188;56.070;12.698;2023-04-01T17:55:28;1.20;;;0.50;;
14209;SDS011;7188;56.070;12.698;2023-04-01T17:58:12;0.80;;;0.30;;
14209;SDS011;7188;56.070;12.698;2023-04-01T18:14:47;2.33;;;0.40;;
14209;SDS011;7188;56.070;12.698;2023-04-01T18:17:25;0.57;;;0.40;;
14209;SDS011;7188;56.070;12.698;2023-04-01T18:28:14;1.30;;;0.40;;
14209;SDS011;7188;56.070;12.698;2023-04-01T18:31:04;1.37;;;0.50;;
14209;SDS011;7188;56.070;12.698;2023-04-01T18:33:46;2.00;;;0.40;;
14209;SDS011;7188;56.070;12.698;2023-04-01T18:39:17;1.73;;;0.40;;
14209;SDS011;7188;56.070;12.698;2023-04-01T18:45:01;1.20;;;0.60;;
14209;SDS011;7188;56.070;12.698;2023-04-01T18:56:00;0.73;;;0.20;;
14209;SDS011;7188;56.070;12.698;2023-04-01T18:58:48;2.00;;;1.17;;
14209;SDS011;7188;56.070;12.698;2023-04-01T19:01:36;1.10;;;0.50;;
14209;SDS011;7188;56.070;12.698;2023-04-01T19:10:12;0.40;;;0.30;;
14209;SDS011;7188;56.070;12.698;2023-04-01T19:19:02;0.83;;;0.40;;
14209;SDS011;7188;56.070;12.698;2023-04-01T19:21:21;0.43;;;0.40;;
14209;SDS011;7188;56.070;12.698;2023-04-01T19:48:07;1.47;;;0.57;;
14209;SDS011;7188;56.070;12.698;2023-04-01T19:50:55;1.00;;;0.40;;
14209;SDS011;7188;56.070;12.698;2023-04-01T19:56:18;0.30;;;0.30;;
14209;SDS011;7188;56.070;12.698;2023-04-01T19:58:56;0.70;;;0.30;;
14209;SDS011;7188;56.070;12.698;2023-04-01T20:01:34;0.40;;;0.30;;
14209;SDS011;7188;56.070;12.698;2023-04-01T20:04:22;0.30;;;0.20;;
14209;SDS011;7188;56.070;12.698;2023-04-01T20:15:34;1.07;;;0.30;;
14209;SDS011;7188;56.070;12.698;2023-04-01T20:18:13;0.50;;;0.30;;
14209;SDS011;7188;56.070;12.698;2023-04-01T20:20:51;0.37;;;0.37;;
14209;SDS011;7188;56.070;12.698;2023-04-01T20:23:45;0.93;;;0.30;;
14209;SDS011;7188;56.070;12.698;2023-04-01T20:26:20;0.67;;;0.30;;
14209;SDS011;7188;56.070;12.698;2023-04-01T20:29:15;0.73;;;0.30;;
14209;SDS011;7188;56.070;12.698;2023-04-01T20:31:36;0.53;;;0.30;;
14209;SDS011;7188;56.070;12.698;2023-04-01T20:37:28;3.53;;;0.30;;
14209;SDS011;7188;56.070;12.698;2023-04-01T20:42:52;2.17;;;0.20;;
14209;SDS011;7188;56.070;12.698;2023-04-01T20:48:16;1.40;;;0.40;;
14209;SDS011;7188;56.070;12.698;2023-04-01T20:51:05;0.30;;;0.30;;
14209;SDS011;7188;56.070;12.698;2023-04-01T20:59:31;0.80;;;0.20;;
14209;SDS011;7188;56.070;12.698;2023-04-01T21:13:04;0.57;;;0.20;;
14209;SDS011;7188;56.070;12.698;2023-04-01T21:26:32;0.40;;;0.40;;
14209;SDS011;7188;56.070;12.698;2023-04-01T21:32:13;1.13;;;0.30;;
14209;SDS011;7188;56.070;12.698;2023-04-01T21:40:42;0.33;;;0.20;;
14209;SDS011;7188;56.070;12.698;2023-04-01T21:52:10;0.60;;;0.30;;
14209;SDS011;7188;56.070;12.698;2023-04-01T22:00:20;0.30;;;0.30;;
14209;SDS011;7188;56.070;12.698;2023-04-01T22:08:46;0.40;;;0.20;;
14209;SDS011;7188;56.070;12.698;2023-04-01T22:14:02;0.40;;;0.30;;
14209;SDS011;7188;56.070;12.698;2023-04-01T22:19:10;0.53;;;0.30;;
14209;SDS011;7188;56.070;12.698;2023-04-01T22:22:08;0.60;;;0.30;;
14209;SDS011;7188;56.070;12.698;2023-04-01T22:25:24;0.30;;;0.30;;
14209;SDS011;7188;56.070;12.698;2023-04-01T22:28:07;0.97;;;0.30;;
14209;SDS011;7188;56.070;12.698;2023-04-01T22:30:59;1.53;;;0.30;;
14209;SDS011;7188;56.070;12.698;2023-04-01T22:36:04;0.70;;;0.20;;
14209;SDS011;7188;56.070;12.698;2023-04-01T22:41:51;0.20;;;0.20;;
14209;SDS011;7188;56.070;12.698;2023-04-01T22:44:50;0.60;;;0.53;;
14209;SDS011;7188;56.070;12.698;2023-04-01T22:47:33;0.67;;;0.30;;
14209;SDS011;7188;56.070;12.698;2023-04-01T22:50:18;0.40;;;0.40;;
14209;SDS011;7188;56.070;12.698;2023-04-01T22:55:29;1.97;;;0.47;;
14209;SDS011;7188;56.070;12.698;2023-04-01T23:00:41;0.50;;;0.20;;
14209;SDS011;7188;56.070;12.698;2023-04-01T23:05:55;3.77;;;0.67;;
14209;SDS011;7188;56.070;12.698;2023-04-01T23:11:06;0.77;;;0.20;;
14209;SDS011;7188;56.070;12.698;2023-04-01T23:13:40;0.40;;;0.40;;
14209;SDS011;7188;56.070;12.698;2023-04-01T23:16:10;1.80;;;0.30;;
14209;SDS011;7188;56.070;12.698;2023-04-01T23:18:56;0.70;;;0.30;;
14209;SDS011;7188;56.070;12.698;2023-04-01T23:21:52;0.30;;;0.30;;
14209;SDS011;7188;56.070;12.698;2023-04-01T23:24:41;0.53;;;0.50;;
14209;SDS011;7188;56.070;12.698;2023-04-01T23:27:20;0.40;;;0.40;;
14209;SDS011;7188;56.070;12.698;2023-04-01T23:29:49;0.50;;;0.50;;
14209;SDS011;7188;56.070;12.698;2023-04-01T23:32:17;0.67;;;0.40;;
14209;SDS011;7188;56.070;12.698;2023-04-01T23:34:47;0.67;;;0.40;;
14209;SDS011;7188;56.070;12.698;2023-04-01T23:37:16;1.53;;;0.37;;
14209;SDS011;7188;56.070;12.698;2023-04-01T23:39:49;2.40;;;0.57;;
14209;SDS011;7188;56.070;12.698;2023-04-01T23:42:26;0.33;;;0.33;;
14209;SDS011;7188;56.070;12.698;2023-04-01T23:44:55;1.33;;;0.40;;
14209;SDS011;7188;56.070;12.698;2023-04-01T23:47:38;1.53;;;0.77;;
14209;SDS011;7188;56.070;12.698;2023-04-01T23:50:18;0.53;;;0.40;;
14209;SDS011;7188;56.070;12.698;2023-04-01T23:53:24;0.53;;;0.50;;
14209;SDS011;7188;56.070;12.698;2023-04-01T23:55:48;0.50;;;0.50;;
